• Join FlightAware (Why Join?)
  • Login
  • US Flag 
12:00PM EDT


 

Airport Tracker/Info


-or-


 

Live Flight TrackerFlight Track Log ✈ THY2461 ✈ 10-May-2013 ✈ LTAF / ADA - LTBA / IST

Flight Track Log - Related Links

Times and Time Zones

All times are in EDT time to prevent confusion due to time zone crossing. See the THY2461 flight status page for this flight to view local times or setup timezone preferences in your user account.

Time Position Orientation Groundspeed Altitude Reporting Facility
EDT Latitude Longitude Course Direction KTS MPH feet Rate Location/Type
06:53AM 37.4160 34.6383 311° West  Level Estimated
06:54AM 37.4777 34.5460 310° West  Level Estimated
06:55AM 37.5393 34.4535 310° West  Level Estimated
06:56AM 37.6009 34.3609 310° West  Level Estimated
06:57AM 37.6624 34.2681 310° West  Level Estimated
06:58AM 37.7238 34.1752 310° West  Level Estimated
06:59AM 37.7851 34.0821 310° West  Level Estimated
07:00AM 37.8464 33.9888 310° West  Level Estimated
07:01AM 37.9076 33.8954 310° West  Level Estimated
07:02AM 37.9687 33.8019 310° West  Level Estimated
07:03AM 38.0297 33.7081 310° West  Level Estimated
07:04AM 38.0907 33.6143 310° West  Level Estimated
07:05AM 38.1516 33.5202 309° West  Level Estimated
07:06AM 38.2124 33.4261 309° West  Level Estimated
07:07AM 38.2731 33.3317 309° West  Level Estimated
07:08AM 38.3338 33.2372 309° West  Level Estimated
07:09AM 38.3944 33.1426 309° West  Level Estimated
07:10AM 38.4549 33.0477 309° West  Level Estimated
07:11AM 38.5153 32.9528 309° West  Level Estimated
07:12AM 38.5757 32.8576 309° West  Level Estimated
07:13AM 38.6359 32.7623 309° West  Level Estimated
07:14AM 38.6962 32.6669 309° West  Level Estimated
07:15AM 38.7563 32.5713 309° West  Level Estimated
07:16AM 38.8163 32.4755 309° West  Level Estimated
07:17AM 38.8763 32.3796 309° West  Level Estimated
07:18AM 38.9362 32.2835 309° West  Level Estimated
07:19AM 38.9960 32.1872 309° West  Level Estimated
07:20AM 39.0557 32.0908 309° West  Level Estimated
07:21AM 39.1154 31.9942 309° West  Level Estimated
07:22AM 39.1749 31.8974 308° West  Level Estimated
07:23AM 39.2344 31.8005 308° West  Level Estimated
07:24AM 39.2938 31.7034 308° West  Level Estimated
07:25AM 39.3532 31.6062 308° West  Level Estimated
07:26AM 39.4124 31.5088 308° West  Level Estimated
07:27AM 39.4716 31.4112 308° West  Level Estimated
07:28AM 39.5307 31.3134 308° West  Level Estimated
07:29AM 39.5897 31.2155 308° West  Level Estimated
07:30AM 39.6486 31.1175 308° West  Level Estimated
07:31AM 39.7075 31.0192 308° West  Level Estimated
07:32AM 39.7662 30.9208 308° West  Level Estimated
07:33AM 39.8249 30.8222 308° West  Level Estimated
07:34AM 39.8835 30.7235 308° West  Level Estimated
07:35AM 39.9420 30.6246 308° West  Level Estimated
07:36AM 40.0004 30.5255 308° West  Level Estimated
07:37AM 40.0588 30.4262 308° West  Level Estimated
07:38AM 40.1170 30.3268 307° West  Level Estimated
07:39AM 40.1752 30.2272 307° West  Level Estimated
07:40AM 40.2332 30.1275 307° West  Level Estimated
07:41AM 40.2912 30.0275 307° West  Level Estimated
07:42AM 40.3492 29.9274 307° West  Level Estimated
07:43AM 40.4070 29.8271 307° West  Level Estimated
07:44AM 40.4647 29.7267 307° West  Level Estimated
07:45AM 40.5224 29.6261 307° West  Level Estimated
07:46AM 40.5799 29.5253 307° West  Level Estimated
07:47AM 40.6374 29.4243 307° West  Level Estimated
07:48AM 40.6948 29.3231 307° West  Level Estimated
07:49AM 40.7521 29.2218 307° West  Level Estimated
07:50AM 40.8093 29.1203 307° West  Level Estimated
07:51AM 40.8664 29.0187 307° West  Level Estimated
07:52AM 40.9235 28.9168 307° West  Level Estimated
07:53AM 40.9769 28.8211 306° West  Level Estimated
07:54AM 40.9769 28.8211 21° North  Level Estimated
07:55AM 40.9769 28.8211 21° North  Level Estimated
07:56AM 40.9769 28.8211 21° North  Level Estimated
07:57AM 40.9769 28.8211 21° North  Level Estimated
07:58AM 40.9769 28.8211 21° North  Level Estimated
07:59AM 40.9769 28.8211 21° North  Level Estimated
08:00AM 40.9769 28.8211 21° North  Level Estimated
08:01AM 40.9769 28.8211 21° North  Level Estimated
08:02AM 40.9769 28.8211 21° North  Level Estimated
08:03AM 40.9769 28.8211 21° North  Level Estimated
08:04AM 40.9769 28.8211 21° North  Level Estimated
08:05AM 40.9769 28.8211 21° North  Level Estimated
08:06AM 40.9769 28.8211 21° North  Level Estimated
08:07AM 40.9769 28.8211 21° North  Level Estimated
08:08AM 40.9769 28.8211 21° North  Level Estimated